Aérodrome :
LOGIN :

S'inscrire | Disclaimer

   EN    FR    IT 

 










Légende :    VFR   VFR Marginal   IFR   IFR Intensif   IFR Très Intensif
Visi : 
Plafond : 
>= 8 km
>= 3000ft
5 à 8 km
1000 à 3000 ft
1500m à 5 km
500 à 1000 ft
800 à 1500m
200 à 500 ft
< 800m
< 200 ft
Symboles :   Orages  Brouillard  Fortes neiges  Fortes précipitations  Vent > 20 kt
SIGMETs :   Divers  Orages  Givrage  Turbulence  Onde Orograph.  Cendres Volcan.







- Altitude de l'aérodrome : 383 ft
- Code IATA : UDJ


UKLU - Uzhhorod

DERNIER METAR :
  • 181900Z VRB01MPS 9999 NSC 21/18 Q1015 NOSIG

METARs EXPIRÉS :
  • 181800Z 30002MPS 9999 NSC 22/18 Q1014 NOSIG
  • 181700Z VRB01MPS 9999 BKN040 23/18 Q1014 NOSIG

TAF TAF UKLU
Valide du 18 à 18h jusqu'au 19 à 03h UTC


181702Z 1818/1903 35003MPS 9999 BKN040
Pas de NOTAMs connus pour ce terrain.
2 SIGMETs publiés pour la FIR L'VIV (UKLV) :
 
Orages noyés dans la masse avec grêle
UKLV SIGMET 7 VALID 182000/182300 UKLW
UKLV LVIV FIR/UIR EMBD TSGR FCST S OF N50 TOP FL350 MOV NW 20KMH NC=
Orages noyés dans la masse avec grêle
UKLV SIGMET 6 VALID 181800/182000 UKLW
UKLV LVIV FIR/UIR EMBD TSGR FCST ENTIRE FIR/UIR TOP FL450 MOV NW 20KMH NC=



MET'MAP, la Météo Aéronautique d'un coup d'oeil ! - Copyright ORBIFLY Décembre 2007 - Disclaimer

ORBIFLY MET'MAP TEAM :

Programmation & Développement : Alexandra Zaïnal
Conception & Développement : Baudouin d'Aumeries
Co-Programmation & Développement : Marc-Olivier Méhu
Soutien technique & logistique : Manuel Goepfert

Contact : metmap@orbifly.com




SOURCES & CREDITS :

   NOAA